Nagasaki, Japan
Current Conditions -  °F | °C
As of 5:00 PM on Thursday 27 Nov 2014 (Local Time) from RJFU Reporting Station
Few Clouds Few Clouds  
Wind Chill: 61°   Ceiling: Unl
Heat Index: 61°   Visibility: 6mi
Dew Point: 48°   Wind: 8mph
Humidity: 63%   Direction: 210°SSW
Pressure: 30.12"   Gusts: NA
Location:  32.75°N, 129.88°E
Report Text: RJFU 270800Z 21007KT 9999 FEW040 16/09 Q1020
Loading
Personal Weather Stations






























Interactive Weather Map New forecast layout! Learn more

10-Day Weather Forecast

Advertisements
Track Severe Weather on mobile